Time;durP1;ratioP1;P1;durP2;ratioP2;P2;SDS_P1;SDS_P2;PMS_P1;PMS_P2;Temp;Humidity;BMP_temperature;BMP_pressure;BME280_temperature;BME280_humidity;BME280_pressure;Samples;Min_cycle;Max_cycle;Signal;HPM_P1;HPM_P2
2022/08/01 00:02:19;;;;;;;;;;;27.90;46.00;;;;;;4982964;28;19925;-69
2022/08/01 00:04:44;;;;;;;;;;;27.90;46.00;;;;;;4979022;28;20099;-68
2022/08/01 00:07:10;;;;;;;;;;;27.90;46.10;;;;;;4986416;28;19960;-69
2022/08/01 00:09:35;;;;;;;;;;;27.90;46.10;;;;;;4976896;28;19926;-67
2022/08/01 00:12:02;;;;;;;;;;;27.90;46.10;;;;;;4982064;28;20000;-69
2022/08/01 00:14:30;;;;;;;;;;;27.90;46.20;;;;;;4978029;28;19922;-67
2022/08/01 00:16:56;;;;;;;;;;;27.80;46.10;;;;;;4976394;28;19929;-66
2022/08/01 00:19:21;;;;;;;;;;;27.80;46.10;;;;;;4987920;28;19921;-68
2022/08/01 00:21:47;;;;;;;;;;;27.80;46.20;;;;;;4975934;28;20742;-67
2022/08/01 00:24:15;;;;;;;;;;;27.80;46.20;;;;;;4978293;28;20389;-66
2022/08/01 00:26:41;;;;;;;;;;;27.80;46.20;;;;;;4977232;28;20377;-68
2022/08/01 00:29:06;;;;;;;;;;;27.80;46.20;;;;;;4985954;28;19913;-66
2022/08/01 00:31:32;;;;;;;;;;;27.80;46.20;;;;;;4978569;28;19976;-66
2022/08/01 00:33:57;;;;;;;;;;;27.80;46.20;;;;;;4975719;28;20059;-67
2022/08/01 00:36:23;;;;;;;;;;;27.80;46.20;;;;;;4977103;28;19929;-68
2022/08/01 00:38:48;;;;;;;;;;;27.70;46.20;;;;;;4977050;28;19925;-66
2022/08/01 00:41:17;;;;;;;;;;;27.70;46.20;;;;;;4974864;28;20315;-68
2022/08/01 00:43:43;;;;;;;;;;;27.70;46.20;;;;;;4976708;28;19917;-66
2022/08/01 00:46:08;;;;;;;;;;;27.70;46.20;;;;;;4979119;28;21572;-66
2022/08/01 00:48:34;;;;;;;;;;;27.70;46.20;;;;;;4993248;28;19921;-67
2022/08/01 00:51:00;;;;;;;;;;;27.70;46.30;;;;;;4977460;28;19918;-67
2022/08/01 00:53:27;;;;;;;;;;;27.70;46.30;;;;;;4974938;28;19917;-66
2022/08/01 00:55:53;;;;;;;;;;;27.60;46.20;;;;;;4976462;28;19965;-67
2022/08/01 00:58:19;;;;;;;;;;;27.60;46.20;;;;;;4976326;28;19946;-68
2022/08/01 01:00:44;;;;;;;;;;;27.60;46.20;;;;;;4976269;28;20334;-69
2022/08/01 01:03:10;;;;;;;;;;;27.60;46.30;;;;;;4976493;28;20352;-66
2022/08/01 01:05:40;;;;;;;;;;;27.60;46.20;;;;;;4978187;28;19918;-69
2022/08/01 01:08:13;;;;;;;;;;;27.60;46.20;;;;;;4985143;28;19928;-68
2022/08/01 01:10:39;;;;;;;;;;;27.60;46.30;;;;;;4989795;28;20355;-67
2022/08/01 01:13:08;;;;;;;;;;;27.60;46.30;;;;;;4989405;28;20405;-67
2022/08/01 01:15:45;;;;;;;;;;;27.60;46.30;;;;;;4991401;28;20000;-67
2022/08/01 01:18:12;;;;;;;;;;;27.50;46.30;;;;;;4976270;28;19972;-67
2022/08/01 01:20:42;;;;;;;;;;;27.50;46.30;;;;;;4974212;28;19928;-66
2022/08/01 01:23:11;;;;;;;;;;;27.50;46.30;;;;;;4974604;28;20308;-66
2022/08/01 01:25:36;;;;;;;;;;;27.50;46.30;;;;;;4974461;28;19953;-67
2022/08/01 01:28:20;;;;;;;;;;;27.50;46.40;;;;;;4974436;28;20007;-66
2022/08/01 01:30:48;;;;;;;;;;;27.50;46.40;;;;;;4981218;28;19921;-66
2022/08/01 01:33:14;;;;;;;;;;;27.50;46.40;;;;;;4978876;28;20459;-69
2022/08/01 01:35:46;;;;;;;;;;;27.50;46.40;;;;;;4987233;28;20008;-68
2022/08/01 01:38:17;;;;;;;;;;;27.40;46.30;;;;;;4978279;28;19917;-66
2022/08/01 01:40:43;;;;;;;;;;;27.40;46.30;;;;;;4979726;28;19953;-69
2022/08/01 01:43:10;;;;;;;;;;;27.40;46.30;;;;;;4979471;28;19967;-66
2022/08/01 01:45:36;;;;;;;;;;;27.40;46.30;;;;;;4979686;28;20498;-66
2022/08/01 01:48:01;;;;;;;;;;;27.40;46.30;;;;;;4979612;28;19918;-66
2022/08/01 01:50:27;;;;;;;;;;;27.40;46.40;;;;;;4978515;28;19964;-68
2022/08/01 01:52:54;;;;;;;;;;;27.40;46.30;;;;;;4987545;28;20839;-67
2022/08/01 01:55:21;;;;;;;;;;;27.40;46.30;;;;;;4977364;28;19921;-66
2022/08/01 01:57:50;;;;;;;;;;;27.40;46.40;;;;;;4993896;28;19968;-66
2022/08/01 02:00:16;;;;;;;;;;;27.40;46.40;;;;;;4978085;28;19925;-69
2022/08/01 02:02:42;;;;;;;;;;;27.30;46.30;;;;;;4980194;28;20243;-67
2022/08/01 02:05:09;;;;;;;;;;;27.40;46.40;;;;;;4995289;28;19941;-66
2022/08/01 02:07:35;;;;;;;;;;;27.30;46.40;;;;;;4978549;28;19921;-66
2022/08/01 02:10:02;;;;;;;;;;;27.30;46.40;;;;;;4980053;28;19929;-68
2022/08/01 02:12:29;;;;;;;;;;;27.30;46.40;;;;;;4978093;28;19932;-67
2022/08/01 02:14:55;;;;;;;;;;;27.30;46.40;;;;;;4979759;28;19949;-67
2022/08/01 02:17:21;;;;;;;;;;;27.30;46.40;;;;;;4980250;28;20482;-66
2022/08/01 02:19:48;;;;;;;;;;;27.30;46.40;;;;;;4980272;28;19922;-67
2022/08/01 02:22:16;;;;;;;;;;;27.30;46.40;;;;;;4977464;28;20060;-69
2022/08/01 02:24:44;;;;;;;;;;;27.30;46.40;;;;;;4981055;28;19928;-66
2022/08/01 02:27:15;;;;;;;;;;;27.30;46.40;;;;;;4978711;28;20400;-67
2022/08/01 02:29:43;;;;;;;;;;;27.20;46.40;;;;;;4992013;28;19918;-69
2022/08/01 02:32:14;;;;;;;;;;;27.20;46.40;;;;;;4977723;28;19930;-67
2022/08/01 02:34:40;;;;;;;;;;;27.20;46.40;;;;;;4977968;28;19930;-66
2022/08/01 02:37:06;;;;;;;;;;;27.20;46.40;;;;;;4977975;28;19913;-66
2022/08/01 02:39:32;;;;;;;;;;;27.20;46.40;;;;;;4993171;28;20390;-68
2022/08/01 02:42:00;;;;;;;;;;;27.20;46.40;;;;;;4978759;28;20140;-66
2022/08/01 02:44:30;;;;;;;;;;;27.20;46.40;;;;;;4980188;28;19922;-68
2022/08/01 02:46:57;;;;;;;;;;;27.20;46.40;;;;;;4978915;28;19929;-66
2022/08/01 02:49:25;;;;;;;;;;;27.20;46.40;;;;;;4994171;28;20024;-66
2022/08/01 02:51:52;;;;;;;;;;;27.20;46.40;;;;;;4978046;28;19920;-67
2022/08/01 02:54:19;;;;;;;;;;;27.20;46.40;;;;;;4979107;28;20097;-67
2022/08/01 02:56:46;;;;;;;;;;;27.10;46.40;;;;;;4976506;28;19921;-67
2022/08/01 02:59:14;;;;;;;;;;;27.20;46.40;;;;;;4980554;28;19917;-66
2022/08/01 03:01:42;;;;;;;;;;;27.20;46.50;;;;;;4978544;28;19922;-65
2022/08/01 03:04:07;;;;;;;;;;;27.10;46.40;;;;;;4978422;28;19922;-67
2022/08/01 03:06:33;;;;;;;;;;;27.10;46.40;;;;;;4977296;28;19921;-69
2022/08/01 03:09:01;;;;;;;;;;;27.10;46.40;;;;;;4979239;28;19965;-66
2022/08/01 03:11:28;;;;;;;;;;;27.10;46.40;;;;;;4976961;28;19994;-66
2022/08/01 03:13:54;;;;;;;;;;;27.10;46.40;;;;;;4978989;28;19949;-66
2022/08/01 03:16:21;;;;;;;;;;;27.10;46.40;;;;;;4977550;28;20395;-66
2022/08/01 03:18:47;;;;;;;;;;;27.10;46.50;;;;;;4977631;28;19914;-68
2022/08/01 03:21:13;;;;;;;;;;;27.10;46.40;;;;;;4978384;28;19924;-66
2022/08/01 03:23:40;;;;;;;;;;;27.00;46.40;;;;;;4975284;28;19934;-67
2022/08/01 03:26:05;;;;;;;;;;;27.10;46.40;;;;;;4976751;28;19921;-67
2022/08/01 03:28:31;;;;;;;;;;;27.10;46.40;;;;;;4978204;28;20008;-66
2022/08/01 03:30:58;;;;;;;;;;;27.00;46.40;;;;;;4977517;28;19921;-67
2022/08/01 03:33:24;;;;;;;;;;;27.10;46.50;;;;;;4978579;28;19940;-66
2022/08/01 03:35:53;;;;;;;;;;;27.00;46.40;;;;;;4985457;28;19918;-66
2022/08/01 03:38:21;;;;;;;;;;;27.00;46.40;;;;;;4975357;28;19918;-67
2022/08/01 03:40:52;;;;;;;;;;;27.00;46.40;;;;;;4976578;28;19918;-68
2022/08/01 03:43:36;;;;;;;;;;;27.00;46.40;;;;;;4975868;28;20345;-67
2022/08/01 03:46:07;;;;;;;;;;;27.00;46.40;;;;;;4977777;28;19957;-67
2022/08/01 03:48:36;;;;;;;;;;;27.00;46.50;;;;;;4978881;28;19980;-68
2022/08/01 03:51:02;;;;;;;;;;;27.00;46.50;;;;;;4974610;28;19918;-66
2022/08/01 03:53:29;;;;;;;;;;;27.00;46.50;;;;;;4976700;28;19928;-66
2022/08/01 03:55:55;;;;;;;;;;;27.00;46.50;;;;;;4976919;28;20146;-66
2022/08/01 03:58:21;;;;;;;;;;;27.00;46.50;;;;;;4976213;28;20285;-66
2022/08/01 04:00:47;;;;;;;;;;;27.00;46.50;;;;;;4990881;28;20020;-67
2022/08/01 04:03:13;;;;;;;;;;;26.90;46.40;;;;;;4977085;28;20294;-67
2022/08/01 04:05:42;;;;;;;;;;;26.90;46.50;;;;;;4977217;28;19917;-66
2022/08/01 04:08:08;;;;;;;;;;;26.90;46.40;;;;;;4989821;28;19918;-67
2022/08/01 04:10:33;;;;;;;;;;;26.90;46.50;;;;;;4977158;28;19918;-66
2022/08/01 04:12:59;;;;;;;;;;;26.90;46.40;;;;;;4976950;28;19957;-66
2022/08/01 04:15:24;;;;;;;;;;;26.90;46.40;;;;;;4974735;28;19921;-68
2022/08/01 04:17:49;;;;;;;;;;;26.90;46.50;;;;;;4976906;28;19949;-66
2022/08/01 04:20:15;;;;;;;;;;;26.90;46.40;;;;;;4992849;28;19918;-68
2022/08/01 04:22:41;;;;;;;;;;;26.90;46.50;;;;;;4976640;28;19918;-66
2022/08/01 04:25:12;;;;;;;;;;;26.90;46.50;;;;;;4976491;28;19990;-69
2022/08/01 04:27:38;;;;;;;;;;;26.90;46.50;;;;;;4977112;28;19925;-66
2022/08/01 04:30:07;;;;;;;;;;;26.90;46.50;;;;;;4978619;28;19914;-66
2022/08/01 04:32:35;;;;;;;;;;;26.90;46.50;;;;;;4975834;28;19969;-68
2022/08/01 04:35:06;;;;;;;;;;;26.90;46.60;;;;;;4989138;28;19926;-66
2022/08/01 04:37:32;;;;;;;;;;;26.80;46.50;;;;;;4976055;28;20319;-67
2022/08/01 04:40:00;;;;;;;;;;;26.80;46.50;;;;;;4977578;28;19928;-66
2022/08/01 04:42:25;;;;;;;;;;;26.80;46.50;;;;;;4978499;28;20054;-66
2022/08/01 04:44:51;;;;;;;;;;;26.80;46.50;;;;;;4977772;28;20068;-67
2022/08/01 04:47:17;;;;;;;;;;;26.80;46.50;;;;;;4988174;28;19969;-66
2022/08/01 04:49:43;;;;;;;;;;;26.80;46.50;;;;;;4988757;28;20075;-67
2022/08/01 04:52:09;;;;;;;;;;;26.80;46.50;;;;;;4973827;28;20143;-67
2022/08/01 04:54:38;;;;;;;;;;;26.80;46.60;;;;;;4977370;28;20009;-66
2022/08/01 04:57:11;;;;;;;;;;;26.80;46.60;;;;;;4977434;28;20242;-67
2022/08/01 04:59:41;;;;;;;;;;;26.80;46.60;;;;;;4976509;28;19914;-70
2022/08/01 05:02:08;;;;;;;;;;;26.80;45.10;;;;;;4975187;28;19921;-68
2022/08/01 05:04:34;;;;;;;;;;;26.50;43.60;;;;;;4982923;28;19918;-70
2022/08/01 05:07:00;;;;;;;;;;;26.20;43.80;;;;;;4981465;28;19940;-67
2022/08/01 05:09:26;;;;;;;;;;;26.10;44.20;;;;;;4983878;28;19933;-68
2022/08/01 05:11:51;;;;;;;;;;;25.80;44.60;;;;;;4992499;28;19910;-71
2022/08/01 05:14:17;;;;;;;;;;;25.70;44.90;;;;;;4983824;28;19933;-68
2022/08/01 05:16:44;;;;;;;;;;;25.60;45.00;;;;;;4984045;28;19973;-69
2022/08/01 05:19:09;;;;;;;;;;;25.40;45.40;;;;;;4982318;28;19928;-67
2022/08/01 05:21:35;;;;;;;;;;;25.40;46.20;;;;;;4982258;28;19917;-67
2022/08/01 05:24:01;;;;;;;;;;;25.30;46.50;;;;;;4979728;28;19983;-71
2022/08/01 05:26:26;;;;;;;;;;;25.30;46.70;;;;;;4979563;28;20283;-67
2022/08/01 05:28:52;;;;;;;;;;;25.20;46.80;;;;;;4996953;28;20461;-67
2022/08/01 05:31:17;;;;;;;;;;;25.20;47.00;;;;;;4981871;28;20266;-67
2022/08/01 05:33:43;;;;;;;;;;;25.10;47.10;;;;;;4981145;28;20044;-70
2022/08/01 05:36:09;;;;;;;;;;;25.00;47.40;;;;;;4979911;28;20504;-68
2022/08/01 05:38:37;;;;;;;;;;;24.90;47.80;;;;;;4981513;28;20178;-68
2022/08/01 05:41:02;;;;;;;;;;;24.80;47.80;;;;;;4983289;28;20261;-67
2022/08/01 05:43:28;;;;;;;;;;;24.80;48.20;;;;;;4978770;28;19918;-68
2022/08/01 05:45:54;;;;;;;;;;;24.70;48.50;;;;;;4981241;28;21203;-68
2022/08/01 05:48:19;;;;;;;;;;;24.70;48.80;;;;;;4980489;28;19918;-67
2022/08/01 05:50:47;;;;;;;;;;;24.70;48.80;;;;;;4980287;28;19922;-67
2022/08/01 05:53:13;;;;;;;;;;;24.70;48.80;;;;;;4978076;28;19968;-68
2022/08/01 05:55:39;;;;;;;;;;;24.80;48.70;;;;;;4979427;28;20435;-68
2022/08/01 05:58:04;;;;;;;;;;;24.70;48.50;;;;;;4979134;28;19964;-67
2022/08/01 06:00:30;;;;;;;;;;;24.60;48.50;;;;;;4978980;28;20000;-68
2022/08/01 06:02:55;;;;;;;;;;;24.60;48.60;;;;;;4978207;28;19972;-67
2022/08/01 06:05:21;;;;;;;;;;;24.60;48.60;;;;;;4995393;28;19918;-68
2022/08/01 06:07:47;;;;;;;;;;;24.60;48.60;;;;;;4978511;28;19929;-69
2022/08/01 06:10:12;;;;;;;;;;;24.70;48.60;;;;;;4986249;28;19917;-67
2022/08/01 06:12:37;;;;;;;;;;;24.70;48.80;;;;;;4979923;28;19949;-69
2022/08/01 06:15:04;;;;;;;;;;;24.60;48.90;;;;;;4978846;28;19928;-66
2022/08/01 06:17:30;;;;;;;;;;;24.70;48.70;;;;;;4979109;28;19913;-66
2022/08/01 06:19:55;;;;;;;;;;;24.70;48.70;;;;;;4980913;28;19922;-65
2022/08/01 06:22:21;;;;;;;;;;;24.80;48.50;;;;;;4978041;28;20444;-65
2022/08/01 06:24:46;;;;;;;;;;;24.80;48.40;;;;;;4979006;28;19929;-66
2022/08/01 06:27:12;;;;;;;;;;;24.80;48.20;;;;;;4978693;28;19924;-67
2022/08/01 06:29:37;;;;;;;;;;;24.90;48.20;;;;;;4974517;28;20289;-67
2022/08/01 06:32:03;;;;;;;;;;;24.90;48.00;;;;;;4976337;28;19928;-67
2022/08/01 06:34:29;;;;;;;;;;;24.90;48.00;;;;;;4993404;28;19921;-66
2022/08/01 06:36:54;;;;;;;;;;;24.90;47.90;;;;;;4978767;28;19988;-66
2022/08/01 06:39:20;;;;;;;;;;;24.90;47.80;;;;;;4977878;28;19978;-67
2022/08/01 06:41:48;;;;;;;;;;;25.00;47.70;;;;;;4974417;28;19926;-67
2022/08/01 06:44:14;;;;;;;;;;;25.00;47.70;;;;;;4976669;28;19918;-66
2022/08/01 06:46:39;;;;;;;;;;;25.00;47.70;;;;;;4976642;28;19983;-67
2022/08/01 06:49:05;;;;;;;;;;;25.00;47.60;;;;;;4980072;28;19921;-66
2022/08/01 06:51:30;;;;;;;;;;;25.00;48.10;;;;;;4977495;28;19913;-66
2022/08/01 06:53:56;;;;;;;;;;;25.10;47.60;;;;;;4993881;28;19925;-66
2022/08/01 06:56:21;;;;;;;;;;;25.10;47.60;;;;;;4978852;28;19920;-69
2022/08/01 06:58:49;;;;;;;;;;;25.10;47.60;;;;;;4977529;28;19965;-66
2022/08/01 07:01:15;;;;;;;;;;;25.10;47.60;;;;;;4987992;28;19926;-68
2022/08/01 07:03:40;;;;;;;;;;;25.10;47.50;;;;;;4978672;28;19914;-65
2022/08/01 07:06:06;;;;;;;;;;;25.10;47.50;;;;;;4979525;28;19921;-69
2022/08/01 07:08:32;;;;;;;;;;;25.10;47.50;;;;;;4975390;28;20370;-68
2022/08/01 07:10:59;;;;;;;;;;;25.10;47.40;;;;;;4980428;28;19917;-66
2022/08/01 07:13:30;;;;;;;;;;;25.10;47.40;;;;;;4974309;28;19917;-67
2022/08/01 07:15:56;;;;;;;;;;;25.10;47.40;;;;;;4977850;28;20592;-66
2022/08/01 07:18:22;;;;;;;;;;;25.10;47.40;;;;;;4978428;28;20388;-66
2022/08/01 07:20:51;;;;;;;;;;;25.10;47.30;;;;;;4985950;28;19910;-66
2022/08/01 07:23:16;;;;;;;;;;;25.20;47.40;;;;;;4976182;28;19926;-66
2022/08/01 07:25:42;;;;;;;;;;;25.10;47.30;;;;;;4976305;28;20013;-66
2022/08/01 07:28:07;;;;;;;;;;;25.20;47.40;;;;;;4976774;28;20059;-67
2022/08/01 07:30:33;;;;;;;;;;;25.20;47.40;;;;;;4975187;28;19926;-66
2022/08/01 07:32:59;;;;;;;;;;;25.20;47.30;;;;;;4976753;28;20386;-66
2022/08/01 07:35:25;;;;;;;;;;;25.20;47.30;;;;;;4987604;28;19972;-66
2022/08/01 07:37:50;;;;;;;;;;;25.20;47.30;;;;;;4976433;28;19921;-67
2022/08/01 07:40:17;;;;;;;;;;;25.20;47.30;;;;;;4978867;28;20367;-69
2022/08/01 07:42:44;;;;;;;;;;;25.20;47.30;;;;;;4977456;28;19944;-67
2022/08/01 07:45:10;;;;;;;;;;;25.20;47.30;;;;;;4978973;28;19917;-66
2022/08/01 07:47:36;;;;;;;;;;;25.20;47.30;;;;;;4975918;28;20531;-66
2022/08/01 07:50:03;;;;;;;;;;;25.30;47.90;;;;;;4978250;28;19945;-65
2022/08/01 07:52:30;;;;;;;;;;;25.30;47.30;;;;;;4974938;28;19918;-69
2022/08/01 07:54:56;;;;;;;;;;;25.30;47.30;;;;;;4990759;28;20726;-67
2022/08/01 07:57:22;;;;;;;;;;;25.30;47.30;;;;;;4976197;28;20358;-66
2022/08/01 07:59:47;;;;;;;;;;;25.30;47.40;;;;;;4985741;28;20927;-66
2022/08/01 08:02:13;;;;;;;;;;;25.30;47.30;;;;;;4989139;28;20370;-66
2022/08/01 08:04:39;;;;;;;;;;;25.30;47.40;;;;;;4979073;28;20369;-66
2022/08/01 08:07:04;;;;;;;;;;;25.30;47.40;;;;;;4975428;28;19944;-67
2022/08/01 08:09:30;;;;;;;;;;;25.30;47.30;;;;;;4976769;28;20321;-67
2022/08/01 08:11:56;;;;;;;;;;;25.30;47.30;;;;;;4977035;28;19928;-66
2022/08/01 08:14:24;;;;;;;;;;;25.30;47.40;;;;;;4976652;28;20370;-66
2022/08/01 08:16:50;;;;;;;;;;;25.30;47.40;;;;;;4976149;28;19929;-65
2022/08/01 08:19:16;;;;;;;;;;;25.30;47.40;;;;;;4976952;28;19918;-66
2022/08/01 08:21:41;;;;;;;;;;;25.30;47.30;;;;;;4983509;28;20036;-69
2022/08/01 08:24:19;;;;;;;;;;;25.30;47.30;;;;;;4976821;28;20244;-66
2022/08/01 08:26:45;;;;;;;;;;;25.30;47.30;;;;;;4977870;28;20248;-66
2022/08/01 08:29:11;;;;;;;;;;;25.40;47.40;;;;;;4993523;28;20365;-66
2022/08/01 08:31:36;;;;;;;;;;;25.30;47.30;;;;;;4976780;28;19917;-67
2022/08/01 08:34:02;;;;;;;;;;;25.40;47.40;;;;;;4976489;28;20626;-66
2022/08/01 08:36:28;;;;;;;;;;;25.40;47.40;;;;;;4975185;28;19918;-67
2022/08/01 08:38:54;;;;;;;;;;;25.40;47.30;;;;;;4985759;28;19918;-66
2022/08/01 08:41:20;;;;;;;;;;;25.40;47.30;;;;;;4984681;28;20827;-66
2022/08/01 08:43:46;;;;;;;;;;;25.40;47.40;;;;;;4981670;28;20002;-67
2022/08/01 08:46:12;;;;;;;;;;;25.40;47.40;;;;;;4983116;28;20436;-68
2022/08/01 08:48:39;;;;;;;;;;;25.40;47.40;;;;;;4985098;28;19933;-67
2022/08/01 08:51:05;;;;;;;;;;;25.40;47.40;;;;;;4986722;28;20033;-68
2022/08/01 08:53:33;;;;;;;;;;;25.40;47.40;;;;;;4981381;28;20368;-69
2022/08/01 08:56:01;;;;;;;;;;;25.40;47.40;;;;;;4989350;28;19926;-66
2022/08/01 08:58:28;;;;;;;;;;;25.40;47.30;;;;;;4986056;28;19918;-66
2022/08/01 09:00:54;;;;;;;;;;;25.40;47.30;;;;;;4974325;28;19980;-66
2022/08/01 09:03:20;;;;;;;;;;;25.40;47.40;;;;;;4991568;28;19936;-67
2022/08/01 09:05:45;;;;;;;;;;;25.40;47.30;;;;;;4981929;28;19922;-67
2022/08/01 09:08:11;;;;;;;;;;;25.40;47.30;;;;;;4980460;28;19922;-66
2022/08/01 09:10:37;;;;;;;;;;;25.40;47.30;;;;;;4983618;28;19925;-69
2022/08/01 09:13:07;;;;;;;;;;;25.40;47.30;;;;;;4982806;28;19917;-68
2022/08/01 09:15:39;;;;;;;;;;;25.40;47.30;;;;;;4982082;28;19928;-66
2022/08/01 09:18:06;;;;;;;;;;;25.40;47.30;;;;;;4995171;28;20056;-66
2022/08/01 09:20:31;;;;;;;;;;;25.40;47.30;;;;;;4995594;28;20013;-66
2022/08/01 09:22:57;;;;;;;;;;;25.50;47.30;;;;;;4997960;28;21256;-69
2022/08/01 09:25:22;;;;;;;;;;;25.50;47.30;;;;;;4982362;28;19918;-69
2022/08/01 09:27:49;;;;;;;;;;;25.50;47.30;;;;;;4982738;28;19918;-66
2022/08/01 09:30:16;;;;;;;;;;;25.50;47.30;;;;;;4987549;28;19925;-68
2022/08/01 09:32:57;;;;;;;;;;;25.50;47.30;;;;;;4983499;28;19913;-66
2022/08/01 09:35:36;;;;;;;;;;;25.50;47.30;;;;;;4982434;28;19924;-69
2022/08/01 09:38:13;;;;;;;;;;;25.50;47.30;;;;;;4979808;28;20398;-69
2022/08/01 09:40:50;;;;;;;;;;;25.50;47.30;;;;;;4982392;28;19936;-66
2022/08/01 09:43:17;;;;;;;;;;;25.50;47.30;;;;;;4982038;28;20453;-66
2022/08/01 09:45:45;;;;;;;;;;;25.50;47.30;;;;;;4984218;28;19917;-66
2022/08/01 09:48:11;;;;;;;;;;;25.50;47.30;;;;;;4982650;28;20351;-66
2022/08/01 09:50:47;;;;;;;;;;;25.50;47.30;;;;;;4990782;28;20216;-66
2022/08/01 09:53:14;;;;;;;;;;;25.50;47.30;;;;;;4979016;28;19957;-66
2022/08/01 09:55:40;;;;;;;;;;;25.50;47.30;;;;;;4977769;28;19921;-68
2022/08/01 09:58:05;;;;;;;;;;;25.50;47.30;;;;;;4979534;28;19980;-67
2022/08/01 10:00:31;;;;;;;;;;;25.50;47.30;;;;;;4980288;28;19930;-66
2022/08/01 10:02:57;;;;;;;;;;;25.60;47.40;;;;;;4982179;28;19921;-68
2022/08/01 10:05:33;;;;;;;;;;;25.50;47.30;;;;;;4980721;28;19921;-66
2022/08/01 10:07:59;;;;;;;;;;;25.60;47.40;;;;;;4993291;28;19917;-67
2022/08/01 10:10:25;;;;;;;;;;;25.60;47.40;;;;;;4978724;28;19921;-67
2022/08/01 10:12:51;;;;;;;;;;;25.60;47.40;;;;;;4990374;28;20369;-69
2022/08/01 10:15:17;;;;;;;;;;;25.60;47.40;;;;;;4977894;28;19931;-66
2022/08/01 10:17:46;;;;;;;;;;;25.60;47.30;;;;;;4979453;28;20381;-67
2022/08/01 10:20:12;;;;;;;;;;;25.60;47.30;;;;;;4980528;28;19925;-70
2022/08/01 10:22:38;;;;;;;;;;;25.60;47.30;;;;;;4977616;28;19924;-69
2022/08/01 10:25:04;;;;;;;;;;;25.60;47.30;;;;;;4973255;28;19917;-66
2022/08/01 10:27:32;;;;;;;;;;;25.60;47.30;;;;;;4974116;28;19921;-66
2022/08/01 10:30:03;;;;;;;;;;;25.60;47.30;;;;;;4976563;28;19967;-69
2022/08/01 10:32:32;;;;;;;;;;;25.60;47.30;;;;;;4976155;28;20338;-68
2022/08/01 10:34:59;;;;;;;;;;;25.60;47.30;;;;;;4982037;28;20433;-66
2022/08/01 10:37:25;;;;;;;;;;;25.60;47.30;;;;;;4981504;28;20240;-66
2022/08/01 10:39:51;;;;;;;;;;;25.60;47.30;;;;;;4973308;28;19918;-67
2022/08/01 10:42:17;;;;;;;;;;;25.70;47.30;;;;;;4982769;28;19922;-67
2022/08/01 10:44:46;;;;;;;;;;;25.70;47.30;;;;;;4981243;28;19918;-69
2022/08/01 10:47:12;;;;;;;;;;;25.60;47.30;;;;;;4974132;28;19921;-66
2022/08/01 10:49:43;;;;;;;;;;;25.70;47.30;;;;;;4975931;28;19957;-67
2022/08/01 10:52:13;;;;;;;;;;;25.60;47.20;;;;;;4971458;28;20397;-67
2022/08/01 10:54:40;;;;;;;;;;;25.70;47.30;;;;;;4972606;28;20370;-66
2022/08/01 10:57:06;;;;;;;;;;;25.70;47.20;;;;;;4975879;28;20260;-66
2022/08/01 10:59:33;;;;;;;;;;;25.70;47.20;;;;;;4976584;28;19918;-66
2022/08/01 11:02:02;;;;;;;;;;;25.70;47.20;;;;;;4975569;28;19945;-67
2022/08/01 11:04:40;;;;;;;;;;;25.70;47.20;;;;;;4974408;28;20056;-66
2022/08/01 11:07:06;;;;;;;;;;;25.70;47.20;;;;;;4974404;28;19936;-66
2022/08/01 11:09:38;;;;;;;;;;;25.70;47.20;;;;;;4986021;28;20019;-68
2022/08/01 11:12:10;;;;;;;;;;;25.70;47.10;;;;;;4974813;28;20032;-66
2022/08/01 11:14:55;;;;;;;;;;;25.70;47.10;;;;;;4974014;28;20320;-67
2022/08/01 11:17:33;;;;;;;;;;;25.70;47.10;;;;;;4981248;28;20021;-66
2022/08/01 11:20:05;;;;;;;;;;;25.70;47.10;;;;;;4971959;28;19918;-68
2022/08/01 11:22:30;;;;;;;;;;;25.70;47.10;;;;;;4973587;28;19965;-69
2022/08/01 11:24:56;;;;;;;;;;;25.70;47.10;;;;;;4972424;28;20009;-68
2022/08/01 11:27:22;;;;;;;;;;;25.70;47.10;;;;;;4970214;28;20276;-67
2022/08/01 11:30:16;;;;;;;;;;;25.70;47.10;;;;;;4970690;28;20024;-67
2022/08/01 11:32:56;;;;;;;;;;;25.70;47.10;;;;;;4963321;28;19985;-68
2022/08/01 11:35:26;;;;;;;;;;;25.70;47.10;;;;;;4970603;28;20317;-68
2022/08/01 11:37:55;;;;;;;;;;;25.70;47.10;;;;;;4970854;28;19944;-67
2022/08/01 11:40:25;;;;;;;;;;;25.70;47.60;;;;;;4971602;28;19945;-69
2022/08/01 11:43:11;;;;;;;;;;;25.70;47.10;;;;;;4970934;28;19925;-68
2022/08/01 11:45:49;;;;;;;;;;;25.70;47.20;;;;;;4970127;28;19921;-67
2022/08/01 11:48:25;;;;;;;;;;;25.80;47.30;;;;;;4972133;28;19923;-70
2022/08/01 11:50:51;;;;;;;;;;;25.80;47.30;;;;;;4981850;28;20033;-67
2022/08/01 11:53:18;;;;;;;;;;;25.80;47.50;;;;;;4974438;28;20665;-66
2022/08/01 11:55:48;;;;;;;;;;;25.80;47.60;;;;;;4971881;28;19925;-66
2022/08/01 11:58:14;;;;;;;;;;;25.70;47.60;;;;;;4969861;28;20576;-69
2022/08/01 12:00:40;;;;;;;;;;;25.80;47.80;;;;;;4988310;28;19922;-69
2022/08/01 12:03:06;;;;;;;;;;;25.80;47.80;;;;;;4983458;28;19922;-66
2022/08/01 12:05:33;;;;;;;;;;;25.80;47.80;;;;;;4971315;28;19922;-69
2022/08/01 12:07:59;;;;;;;;;;;25.80;47.90;;;;;;4969886;28;20536;-70
2022/08/01 12:10:35;;;;;;;;;;;25.80;48.00;;;;;;4970461;28;20089;-67
2022/08/01 12:13:04;;;;;;;;;;;25.80;48.00;;;;;;4974242;28;19922;-68
2022/08/01 12:15:30;;;;;;;;;;;25.80;48.00;;;;;;4970447;28;19998;-69
2022/08/01 12:17:57;;;;;;;;;;;25.80;48.10;;;;;;4972873;28;19922;-67
2022/08/01 12:20:24;;;;;;;;;;;25.80;48.00;;;;;;4971763;28;20028;-67
2022/08/01 12:22:53;;;;;;;;;;;25.90;48.10;;;;;;4973936;28;19928;-69
2022/08/01 12:25:19;;;;;;;;;;;25.80;48.10;;;;;;4974309;28;20485;-67
2022/08/01 12:27:45;;;;;;;;;;;25.80;48.10;;;;;;4973316;28;19921;-68
2022/08/01 12:30:18;;;;;;;;;;;25.80;48.10;;;;;;4981463;28;20229;-69
2022/08/01 12:32:48;;;;;;;;;;;25.90;48.20;;;;;;4970928;28;19928;-67
2022/08/01 12:35:15;;;;;;;;;;;25.90;48.10;;;;;;4973865;28;20044;-67
2022/08/01 12:37:43;;;;;;;;;;;25.90;48.10;;;;;;4971039;28;19963;-68
2022/08/01 12:40:29;;;;;;;;;;;25.90;48.10;;;;;;4971953;28;19937;-65
2022/08/01 12:42:59;;;;;;;;;;;25.90;48.10;;;;;;4969590;28;19968;-67
2022/08/01 12:45:26;;;;;;;;;;;25.90;48.20;;;;;;4985191;28;19917;-66
2022/08/01 12:47:53;;;;;;;;;;;25.90;48.20;;;;;;4975904;28;20433;-67
2022/08/01 12:50:20;;;;;;;;;;;25.90;48.20;;;;;;4974655;28;20016;-69
2022/08/01 12:52:46;;;;;;;;;;;25.90;48.20;;;;;;4969818;28;20056;-68
2022/08/01 12:55:13;;;;;;;;;;;26.00;48.30;;;;;;4971113;28;20996;-66
2022/08/01 12:57:41;;;;;;;;;;;25.90;48.20;;;;;;4981227;28;19917;-66
2022/08/01 13:00:07;;;;;;;;;;;25.90;48.20;;;;;;4972492;28;19928;-66
2022/08/01 13:02:33;;;;;;;;;;;25.90;48.20;;;;;;4971494;28;20372;-67
2022/08/01 13:04:58;;;;;;;;;;;26.00;48.40;;;;;;4974129;28;19913;-70
2022/08/01 13:07:34;;;;;;;;;;;26.00;48.30;;;;;;4969635;28;20424;-68
2022/08/01 13:10:00;;;;;;;;;;;26.00;48.40;;;;;;4970747;28;19918;-68
2022/08/01 13:12:25;;;;;;;;;;;26.00;48.30;;;;;;4971994;28;19948;-67
2022/08/01 13:14:51;;;;;;;;;;;26.00;48.90;;;;;;4970106;28;20278;-70
2022/08/01 13:17:39;;;;;;;;;;;26.00;48.30;;;;;;4972407;28;20362;-66
2022/08/01 13:20:05;;;;;;;;;;;26.00;48.40;;;;;;4970768;28;19925;-69
2022/08/01 13:22:34;;;;;;;;;;;26.00;48.40;;;;;;4971646;28;20004;-68
2022/08/01 13:25:13;;;;;;;;;;;26.00;48.40;;;;;;4976145;28;20013;-67
2022/08/01 13:27:38;;;;;;;;;;;26.00;48.40;;;;;;4974498;28;20036;-68
2022/08/01 13:30:11;;;;;;;;;;;26.00;48.40;;;;;;4974165;28;19951;-67
2022/08/01 13:32:37;;;;;;;;;;;26.00;48.40;;;;;;4971953;28;19926;-67
2022/08/01 13:35:04;;;;;;;;;;;26.00;48.40;;;;;;4976258;28;20405;-68
2022/08/01 13:37:29;;;;;;;;;;;26.00;48.40;;;;;;4972766;28;19925;-69
2022/08/01 13:39:55;;;;;;;;;;;26.10;48.50;;;;;;4972366;28;19921;-68
2022/08/01 13:42:20;;;;;;;;;;;26.10;48.50;;;;;;4977057;28;20377;-68
2022/08/01 13:44:46;;;;;;;;;;;26.10;48.50;;;;;;4976760;28;19929;-68
2022/08/01 13:47:11;;;;;;;;;;;26.10;48.40;;;;;;4973418;28;20349;-66
2022/08/01 13:49:37;;;;;;;;;;;26.10;48.50;;;;;;4992325;28;20235;-67
2022/08/01 13:52:03;;;;;;;;;;;26.10;48.50;;;;;;4990740;28;19960;-70
2022/08/01 13:54:28;;;;;;;;;;;26.10;48.60;;;;;;4975145;28;20464;-67
2022/08/01 13:56:55;;;;;;;;;;;26.10;48.60;;;;;;4974132;28;19991;-67
2022/08/01 13:59:20;;;;;;;;;;;26.10;48.60;;;;;;4973980;28;20146;-68
2022/08/01 14:01:46;;;;;;;;;;;26.10;48.60;;;;;;4973854;28;20266;-70
2022/08/01 14:04:12;;;;;;;;;;;26.10;48.50;;;;;;4975302;28;19928;-70
2022/08/01 14:06:37;;;;;;;;;;;26.10;48.60;;;;;;4974536;28;19970;-68
2022/08/01 14:09:04;;;;;;;;;;;26.20;48.70;;;;;;4972412;28;19937;-69
2022/08/01 14:11:29;;;;;;;;;;;26.20;48.70;;;;;;4972484;28;20012;-68
2022/08/01 14:13:55;;;;;;;;;;;26.20;48.70;;;;;;4975030;28;19917;-67
2022/08/01 14:16:20;;;;;;;;;;;26.20;48.70;;;;;;4973364;28;19918;-67
2022/08/01 14:18:46;;;;;;;;;;;26.20;48.70;;;;;;4970931;28;19979;-69